Current Weather

DuPage County

West Chicago, Illinois (KDPA)

Report from: Monday, August 15, 2022 6:52 PM CDT
Current time: Monday, August 15, 2022 7:15 PM CDT

Nearby weather
Weather history
Weather forecast

Temperature22.8°C (73.0°F)
Dew point13.9°C (57.0°F)
Winds 4 kts (2.1 m/s, 4.6 mph) Northeast (40°)
Visibility10 mi. (16.1 km)
Clouds Ceiling: Overcast 10,000 ft. (3,048 m)
Altimeter30.07 in.Hg (1018 mB)
Relative humidity57 %
Density altitude959 ft. (292 m)
Sea-level pressure101.8 kPa (1018 mB, 30.06 in.Hg)
Max temp last 6 hours26.1°C (79.0°F)
Min temp last 6 hours22.8°C (73.0°F)
Remarks Automated weather observing station with precipitation discriminator
Pressure rising more quickly
Flight conditions Visual Meteorological Conditions
Raw dataKDPA 152352Z 04004KT 10SM OVC100 23/14 A3007 RMK AO2 SLP180 T02280139 10261 20228 53007
An error has occurred. This application may no longer respond until reloaded. Reload 🗙